Astra — PB4187 — position and weather

sailwx.info

Track history (hours):
 
Tides and Currents Weather Stations Pressure Air Temp Water Temp Dewpoint Dewpoint Depression Visibility Wind Speed Wind Dir Waves Ship Positions

Astra

Last reported at 2016-Feb-12 02:27 UTC. Time now 2016-Feb-12 09:56 UTC.
Position N 50°49' E 007°01'.

Length 110 m; draft 0.1 m.

Type: Tanker. MMSI: 244650752.

Date/timePositionNaut miles runAvg speedWind from/ knotsBaromVisibWave heightAir tempDewpointWater temp
2016-Feb-12 02:27N 50°49' E 007°01'2 2.3
2016-Feb-12 01:29N 50°51' E 007°00'3 2.2
2016-Feb-12 00:20N 50°54' E 007°00'3 3.9
2016-Feb-11 23:29N 50°57' E 006°58'10 3.3
2016-Feb-11 20:33N 51°05' E 006°52'3 3.4
2016-Feb-11 19:33N 51°09' E 006°51'2 2.2
2016-Feb-11 18:33N 51°09' E 006°48'3 3.0
2016-Feb-11 17:33N 51°11' E 006°44'2 2.3
2016-Feb-11 16:33N 51°13' E 006°45'3 2.8
2016-Feb-11 15:33N 51°16' E 006°43'5 3.5
2016-Feb-11 14:15N 51°20' E 006°42'2 2.6
2016-Feb-11 13:27N 51°22' E 006°40'4 3.6
2016-Feb-11 12:28N 51°24' E 006°45'3 3.5
2016-Feb-11 11:31N 51°28' E 006°43'2 2.2
2016-Feb-11 10:33N 51°30' E 006°43'4 3.7
2016-Feb-11 09:33N 51°33' E 006°41'3 3.4
2016-Feb-11 08:33N 51°35' E 006°36'4 4.5
2016-Feb-11 07:33N 51°39' E 006°36'12 3.9
2016-Feb-11 04:30N 51°46' E 006°20'5 4.7
2016-Feb-11 03:33N 51°49' E 006°16'5 4.8
2016-Feb-11 02:28N 51°51' E 006°08'10 3.1
2016-Feb-10 23:12N 51°51' E 005°51'4 5.3
2016-Feb-10 22:32N 51°53' E 005°46'6 5.8
2016-Feb-10 21:31N 51°54' E 005°37'5 5.5
2016-Feb-10 20:32N 51°53' E 005°28'5 5.5
2016-Feb-10 19:34N 51°49' E 005°23'5 4.5
2016-Feb-10 18:32N 51°49' E 005°15'5 5.3
2016-Feb-10 17:33N 51°49' E 005°07'6 6.0
2016-Feb-10 16:33N 51°50' E 004°57'8 7.8
2016-Feb-10 15:33N 51°49' E 004°44'5 4.8
2016-Feb-10 14:34N 51°47' E 004°38'8 7.5
2016-Feb-10 13:33N 51°42' E 004°29'3 3.0
2016-Feb-10 12:33N 51°41' E 004°24'7 6.5
2016-Feb-10 11:30N 51°38' E 004°15'7 6.7
2016-Feb-10 10:32N 51°32' E 004°14'5 5.0
2016-Feb-10 09:33N 51°27' E 004°14'7 7.1
2016-Feb-10 08:32N 51°20' E 004°18'4 4.4
2016-Feb-10 07:33N 51°16' E 004°22'0 0.0
2016-Feb-10 06:33N 51°16' E 004°22'0 0.0
2016-Feb-10 05:34N 51°16' E 004°22'0 0.0
2016-Feb-10 04:33N 51°16' E 004°22'0 0.0
2016-Feb-10 03:33N 51°16' E 004°22'0 0.0
2016-Feb-10 02:33N 51°16' E 004°22'0 0.0
2016-Feb-10 01:33N 51°16' E 004°22'0 0.0
2016-Feb-10 00:33N 51°16' E 004°22'0 0.0
2016-Feb-09 23:33N 51°16' E 004°22'0 0.0
2016-Feb-09 22:34N 51°16' E 004°22'0 0.0
2016-Feb-09 21:33N 51°16' E 004°22'0 0.0
2016-Feb-09 20:33N 51°16' E 004°22'0 0.0
2016-Feb-09 19:33N 51°16' E 004°22'0 0.0
2016-Feb-09 18:33N 51°16' E 004°22'0 0.0
2016-Feb-09 17:33N 51°16' E 004°22'0 0.0
2016-Feb-09 16:34N 51°16' E 004°22'0 0.0
2016-Feb-09 15:33N 51°16' E 004°22'0 0.0
2016-Feb-09 14:33N 51°16' E 004°22'0 0.0
2016-Feb-09 13:34N 51°16' E 004°22'0 0.0
2016-Feb-09 12:34N 51°16' E 004°22'1 1.1
2016-Feb-09 11:34N 51°15' E 004°23'0 0.0
2016-Feb-09 10:33N 51°15' E 004°23'0 0.0
2016-Feb-09 09:33N 51°15' E 004°23'0 0.0
2016-Feb-09 08:33N 51°15' E 004°23'2 1.7
2016-Feb-09 07:33N 51°16' E 004°20'0 0.0
2016-Feb-09 06:34N 51°16' E 004°20'0 0.0
2016-Feb-09 05:33N 51°16' E 004°20'0 0.0
2016-Feb-09 04:33N 51°16' E 004°20'0 0.0
2016-Feb-09 03:34N 51°16' E 004°20'0 0.0
2016-Feb-09 02:33N 51°16' E 004°20'0 0.0
2016-Feb-09 01:34N 51°16' E 004°20'0 0.0
2016-Feb-09 00:33N 51°16' E 004°20'0 0.0
2016-Feb-08 23:33N 51°16' E 004°20'0 0.0
2016-Feb-08 22:34N 51°16' E 004°20'0 0.0
2016-Feb-08 21:34N 51°16' E 004°20'0 0.0
2016-Feb-08 20:34N 51°16' E 004°20'0 0.0
2016-Feb-08 19:34N 51°16' E 004°20'0 0.0
2016-Feb-08 18:33N 51°16' E 004°20'0 0.0
2016-Feb-08 17:34N 51°16' E 004°20'0 0.0
2016-Feb-08 16:34N 51°16' E 004°20'0 0.0
2016-Feb-08 15:33N 51°16' E 004°20'0 0.0
2016-Feb-08 14:33N 51°16' E 004°20'0 0.0
2016-Feb-08 13:33N 51°16' E 004°20'0 0.0
2016-Feb-08 12:33N 51°16' E 004°20'0 0.0
2016-Feb-08 11:34N 51°16' E 004°20'0 0.0
2016-Feb-08 10:34N 51°16' E 004°20'0 0.0
2016-Feb-08 09:33N 51°16' E 004°20'0 0.0
2016-Feb-08 08:33N 51°16' E 004°20'0 0.0
2016-Feb-08 07:33N 51°16' E 004°20'0 0.0
2016-Feb-08 06:33N 51°16' E 004°20'0 0.0
2016-Feb-08 05:34N 51°16' E 004°20'0 0.0
2016-Feb-08 04:34N 51°16' E 004°20'0 0.0
2016-Feb-08 03:34N 51°16' E 004°20'0 0.0
2016-Feb-08 02:34N 51°16' E 004°20'0 0.0
2016-Feb-08 01:34N 51°16' E 004°20'0 0.0
2016-Feb-08 00:33N 51°16' E 004°20'0 0.0
2016-Feb-07 23:33N 51°16' E 004°20'0 0.0
2016-Feb-07 22:33N 51°16' E 004°20'0 0.0
2016-Feb-07 21:33N 51°16' E 004°20'0 0.0
2016-Feb-07 20:34N 51°16' E 004°20'0 0.1
2016-Feb-07 19:34N 51°16' E 004°20'0 0.0
2016-Feb-07 18:33N 51°16' E 004°20'0 0.0
2016-Feb-07 17:33N 51°16' E 004°20'0 0.0
2016-Feb-07 16:34N 51°16' E 004°20'0 0.0
2016-Feb-07 15:33N 51°16' E 004°20'0 0.0
2016-Feb-07 14:34N 51°16' E 004°20'0 0.0
2016-Feb-07 13:33N 51°16' E 004°20'0 0.0
2016-Feb-07 12:34N 51°16' E 004°20'0 0.0
2016-Feb-07 11:33N 51°16' E 004°20'0 0.0
2016-Feb-07 10:33N 51°16' E 004°20'0 0.0
2016-Feb-07 09:33N 51°16' E 004°20'0 0.0
2016-Feb-07 08:33N 51°16' E 004°20'0 0.0
2016-Feb-07 07:33N 51°16' E 004°20'0 0.0
2016-Feb-07 06:33N 51°16' E 004°20'0 0.0
2016-Feb-07 05:33N 51°16' E 004°20'0 0.0
2016-Feb-07 04:33N 51°16' E 004°20'0 0.0
2016-Feb-07 03:33N 51°16' E 004°20'0 0.0
2016-Feb-07 02:33N 51°16' E 004°20'0 0.0
2016-Feb-07 01:33N 51°16' E 004°20'0 0.0
2016-Feb-07 00:33N 51°16' E 004°20'0 0.0
2016-Feb-06 23:33N 51°16' E 004°20'0 0.0
2016-Feb-06 22:34N 51°16' E 004°20'0 0.0
2016-Feb-06 21:34N 51°16' E 004°20'0 0.0
2016-Feb-06 20:34N 51°16' E 004°20'0 0.0
2016-Feb-06 19:34N 51°16' E 004°20'0 0.0
2016-Feb-06 18:33N 51°16' E 004°20'0 0.0
2016-Feb-06 17:34N 51°16' E 004°20'0 0.0
2016-Feb-06 16:33N 51°16' E 004°20'0 0.0
2016-Feb-06 15:33N 51°16' E 004°20'0 0.0
2016-Feb-06 14:33N 51°16' E 004°20'0 0.0
2016-Feb-06 13:33N 51°16' E 004°20'0 0.0
2016-Feb-06 12:33N 51°16' E 004°20'0 0.0
2016-Feb-06 11:34N 51°16' E 004°20'0 0.0
2016-Feb-06 10:34N 51°16' E 004°20'0 0.0
2016-Feb-06 09:33N 51°16' E 004°20'0 0.0
2016-Feb-06 08:33N 51°16' E 004°20'0 0.0
2016-Feb-06 07:34N 51°16' E 004°20'0 0.0
2016-Feb-06 06:33N 51°16' E 004°20'0 0.0
2016-Feb-06 05:34N 51°16' E 004°20'0 0.0
2016-Feb-06 04:34N 51°16' E 004°20'0 0.0
2016-Feb-06 03:33N 51°16' E 004°20'0 0.0
2016-Feb-06 02:33N 51°16' E 004°20'0 0.0
2016-Feb-06 01:34N 51°16' E 004°20'0 0.0
2016-Feb-06 00:33N 51°16' E 004°20'0 0.0
2016-Feb-05 23:33N 51°16' E 004°20'0 0.0
2016-Feb-05 22:33N 51°16' E 004°20'0 0.0
2016-Feb-05 21:33N 51°16' E 004°20'0 0.0
2016-Feb-05 20:33N 51°16' E 004°20'0 0.0
2016-Feb-05 19:33N 51°16' E 004°20'0 0.0
2016-Feb-05 18:33N 51°16' E 004°20'0 0.0
2016-Feb-05 17:33N 51°16' E 004°20'0 0.0
2016-Feb-05 16:34N 51°16' E 004°20'0 0.0
2016-Feb-05 15:33N 51°16' E 004°20'0 0.0
2016-Feb-05 14:33N 51°16' E 004°20'0 0.0
2016-Feb-05 13:33N 51°16' E 004°20'0 0.0
2016-Feb-05 12:33N 51°16' E 004°20'0 0.0
2016-Feb-05 11:34N 51°16' E 004°20'0 0.0
2016-Feb-05 10:33N 51°16' E 004°20'0 0.0
2016-Feb-05 09:33N 51°16' E 004°20'0 0.0
2016-Feb-05 08:33N 51°16' E 004°20'0 0.0
2016-Feb-05 07:33N 51°16' E 004°20'0 0.0
2016-Feb-05 06:33N 51°16' E 004°20'0 0.0
2016-Feb-05 05:33N 51°16' E 004°20'0 0.0
2016-Feb-05 04:33N 51°16' E 004°20'0 0.0
2016-Feb-05 03:33N 51°16' E 004°20'0 0.0
2016-Feb-05 02:33N 51°16' E 004°20'0 0.0
2016-Feb-05 01:33N 51°16' E 004°20'0 0.0
2016-Feb-05 00:33N 51°16' E 004°20'0 0.0
2016-Feb-04 23:33N 51°16' E 004°20'0 0.1
2016-Feb-04 22:33N 51°16' E 004°20'3 3.1
2016-Feb-04 21:33N 51°19' E 004°19'8 8.3
2016-Feb-04 20:33N 51°27' E 004°14'5 5.0
2016-Feb-04 19:31N 51°32' E 004°14'8 8.6
2016-Feb-04 18:33N 51°40' E 004°19'4 4.3
2016-Feb-04 17:32N 51°42' E 004°25'8 8.4
2016-Feb-04 16:33N 51°45' E 004°38'7 7.5
2016-Feb-04 15:33N 51°50' E 004°30'7 7.1
2016-Feb-04 14:33N 51°54' E 004°20'4 3.5
2016-Feb-04 13:33N 51°55' E 004°25'0 0.0
2016-Feb-04 12:33N 51°55' E 004°25'0 0.0
2016-Feb-04 11:33N 51°55' E 004°25'0 0.0
2016-Feb-04 10:33N 51°55' E 004°25'0 0.0
2016-Feb-04 09:33N 51°55' E 004°25'0 0.0
2016-Feb-04 08:33N 51°55' E 004°25'0 0.0
2016-Feb-04 07:33N 51°55' E 004°25'0 0.0
2016-Feb-04 06:33N 51°55' E 004°25'0 0.0
2016-Feb-04 05:33N 51°55' E 004°25'0 0.0
2016-Feb-04 04:33N 51°55' E 004°25'0 0.0
2016-Feb-04 03:33N 51°55' E 004°25'0 0.0
2016-Feb-04 02:33N 51°55' E 004°25'0 0.0
2016-Feb-04 01:33N 51°55' E 004°25'0 0.0
2016-Feb-04 00:33N 51°55' E 004°25'0 0.0
2016-Feb-03 23:33N 51°55' E 004°25'0 0.0
2016-Feb-03 22:33N 51°55' E 004°25'0 0.0
2016-Feb-03 21:33N 51°55' E 004°25'0 0.0
2016-Feb-03 20:33N 51°55' E 004°25'0 0.0
2016-Feb-03 19:33N 51°55' E 004°25'0 0.0
2016-Feb-03 18:33N 51°55' E 004°25'4 4.0
2016-Feb-03 17:33N 51°53' E 004°19'0 0.3
2016-Feb-03 16:33N 51°53' E 004°19'0 0.0
2016-Feb-03 15:33N 51°53' E 004°19'0 0.0
2016-Feb-03 14:33N 51°53' E 004°19'0 0.0
2016-Feb-03 13:33N 51°53' E 004°19'0 0.1
2016-Feb-03 12:33N 51°53' E 004°19'6 5.5
2016-Feb-03 11:33N 51°56' E 004°12'1 1.0
2016-Feb-03 10:33N 51°56' E 004°10'0 0.0
2016-Feb-03 09:33N 51°56' E 004°10'0 0.0
2016-Feb-03 08:33N 51°56' E 004°10'0 0.0
2016-Feb-03 07:33N 51°56' E 004°10'0 0.0
2016-Feb-03 06:33N 51°56' E 004°10'0 0.0
2016-Feb-03 05:33N 51°56' E 004°10'0 0.0
2016-Feb-03 04:33N 51°56' E 004°10'0 0.0
2016-Feb-03 03:33N 51°56' E 004°10'0 0.0
2016-Feb-03 02:33N 51°56' E 004°10'0 0.0
2016-Feb-03 01:33N 51°56' E 004°10'0 0.0
2016-Feb-03 00:33N 51°56' E 004°10'0 0.0
2016-Feb-02 23:33N 51°56' E 004°10'0 0.0
2016-Feb-02 22:33N 51°56' E 004°10'3 2.8
2016-Feb-02 21:33N 51°54' E 004°14'5 5.2
2016-Feb-02 20:33N 51°52' E 004°20'8 8.5
2016-Feb-02 19:33N 51°49' E 004°34'10 9.5
2016-Feb-02 18:33N 51°49' E 004°49'1110.9
2016-Feb-02 17:33N 51°49' E 005°07'10 9.9
2016-Feb-02 16:33N 51°49' E 005°23'1010.3
2016-Feb-02 15:33N 51°54' E 005°38'14 9.4
2016-Feb-02 14:05N 51°53' E 005°60'710.6
2016-Feb-02 13:24N 51°50' E 006°11'25 8.9
2016-Feb-02 10:33N 51°33' E 006°41'19 8.1
2016-Feb-02 08:14N 51°14' E 006°46'21 7.8
2016-Feb-02 05:30N 50°55' E 006°59'  
Track history (hours):
 
Tides and Currents Weather Stations Pressure Air Temp Water Temp Dewpoint Dewpoint Depression Visibility Wind Speed Wind Dir Waves Ship Positions

Astra

Last reported at 2016-Feb-12 02:27 UTC. Time now 2016-Feb-12 09:56 UTC.
Position N 50°49' E 007°01'.

Length 110 m; draft 0.1 m.

Type: Tanker. MMSI: 244650752.

Date/timePositionNaut miles runAvg speedWind from/ knotsBaromVisibWave heightAir tempDewpointWater temp
2016-Feb-12 02:27N 50°49' E 007°01'2 2.3
2016-Feb-12 01:29N 50°51' E 007°00'3 2.2
2016-Feb-12 00:20N 50°54' E 007°00'3 3.9
2016-Feb-11 23:29N 50°57' E 006°58'10 3.3
2016-Feb-11 20:33N 51°05' E 006°52'3 3.4
2016-Feb-11 19:33N 51°09' E 006°51'2 2.2
2016-Feb-11 18:33N 51°09' E 006°48'3 3.0
2016-Feb-11 17:33N 51°11' E 006°44'2 2.3
2016-Feb-11 16:33N 51°13' E 006°45'3 2.8
2016-Feb-11 15:33N 51°16' E 006°43'5 3.5
2016-Feb-11 14:15N 51°20' E 006°42'2 2.6
2016-Feb-11 13:27N 51°22' E 006°40'4 3.6
2016-Feb-11 12:28N 51°24' E 006°45'3 3.5
2016-Feb-11 11:31N 51°28' E 006°43'2 2.2
2016-Feb-11 10:33N 51°30' E 006°43'4 3.7
2016-Feb-11 09:33N 51°33' E 006°41'3 3.4
2016-Feb-11 08:33N 51°35' E 006°36'4 4.5
2016-Feb-11 07:33N 51°39' E 006°36'12 3.9
2016-Feb-11 04:30N 51°46' E 006°20'5 4.7
2016-Feb-11 03:33N 51°49' E 006°16'5 4.8
2016-Feb-11 02:28N 51°51' E 006°08'10 3.1
2016-Feb-10 23:12N 51°51' E 005°51'4 5.3
2016-Feb-10 22:32N 51°53' E 005°46'6 5.8
2016-Feb-10 21:31N 51°54' E 005°37'5 5.5
2016-Feb-10 20:32N 51°53' E 005°28'5 5.5
2016-Feb-10 19:34N 51°49' E 005°23'5 4.5
2016-Feb-10 18:32N 51°49' E 005°15'5 5.3
2016-Feb-10 17:33N 51°49' E 005°07'6 6.0
2016-Feb-10 16:33N 51°50' E 004°57'8 7.8
2016-Feb-10 15:33N 51°49' E 004°44'5 4.8
2016-Feb-10 14:34N 51°47' E 004°38'8 7.5
2016-Feb-10 13:33N 51°42' E 004°29'3 3.0
2016-Feb-10 12:33N 51°41' E 004°24'7 6.5
2016-Feb-10 11:30N 51°38' E 004°15'7 6.7
2016-Feb-10 10:32N 51°32' E 004°14'5 5.0
2016-Feb-10 09:33N 51°27' E 004°14'7 7.1
2016-Feb-10 08:32N 51°20' E 004°18'4 4.4
2016-Feb-10 07:33N 51°16' E 004°22'0 0.0
2016-Feb-10 06:33N 51°16' E 004°22'0 0.0
2016-Feb-10 05:34N 51°16' E 004°22'0 0.0
2016-Feb-10 04:33N 51°16' E 004°22'0 0.0
2016-Feb-10 03:33N 51°16' E 004°22'0 0.0
2016-Feb-10 02:33N 51°16' E 004°22'0 0.0
2016-Feb-10 01:33N 51°16' E 004°22'0 0.0
2016-Feb-10 00:33N 51°16' E 004°22'0 0.0
2016-Feb-09 23:33N 51°16' E 004°22'0 0.0
2016-Feb-09 22:34N 51°16' E 004°22'0 0.0
2016-Feb-09 21:33N 51°16' E 004°22'0 0.0
2016-Feb-09 20:33N 51°16' E 004°22'0 0.0
2016-Feb-09 19:33N 51°16' E 004°22'0 0.0
2016-Feb-09 18:33N 51°16' E 004°22'0 0.0
2016-Feb-09 17:33N 51°16' E 004°22'0 0.0
2016-Feb-09 16:34N 51°16' E 004°22'0 0.0
2016-Feb-09 15:33N 51°16' E 004°22'0 0.0
2016-Feb-09 14:33N 51°16' E 004°22'0 0.0
2016-Feb-09 13:34N 51°16' E 004°22'0 0.0
2016-Feb-09 12:34N 51°16' E 004°22'1 1.1
2016-Feb-09 11:34N 51°15' E 004°23'0 0.0
2016-Feb-09 10:33N 51°15' E 004°23'0 0.0
2016-Feb-09 09:33N 51°15' E 004°23'0 0.0
2016-Feb-09 08:33N 51°15' E 004°23'2 1.7
2016-Feb-09 07:33N 51°16' E 004°20'0 0.0
2016-Feb-09 06:34N 51°16' E 004°20'0 0.0
2016-Feb-09 05:33N 51°16' E 004°20'0 0.0
2016-Feb-09 04:33N 51°16' E 004°20'0 0.0
2016-Feb-09 03:34N 51°16' E 004°20'0 0.0
2016-Feb-09 02:33N 51°16' E 004°20'0 0.0
2016-Feb-09 01:34N 51°16' E 004°20'0 0.0
2016-Feb-09 00:33N 51°16' E 004°20'0 0.0
2016-Feb-08 23:33N 51°16' E 004°20'0 0.0
2016-Feb-08 22:34N 51°16' E 004°20'0 0.0
2016-Feb-08 21:34N 51°16' E 004°20'0 0.0
2016-Feb-08 20:34N 51°16' E 004°20'0 0.0
2016-Feb-08 19:34N 51°16' E 004°20'0 0.0
2016-Feb-08 18:33N 51°16' E 004°20'0 0.0
2016-Feb-08 17:34N 51°16' E 004°20'0 0.0
2016-Feb-08 16:34N 51°16' E 004°20'0 0.0
2016-Feb-08 15:33N 51°16' E 004°20'0 0.0
2016-Feb-08 14:33N 51°16' E 004°20'0 0.0
2016-Feb-08 13:33N 51°16' E 004°20'0 0.0
2016-Feb-08 12:33N 51°16' E 004°20'0 0.0
2016-Feb-08 11:34N 51°16' E 004°20'0 0.0
2016-Feb-08 10:34N 51°16' E 004°20'0 0.0
2016-Feb-08 09:33N 51°16' E 004°20'0 0.0
2016-Feb-08 08:33N 51°16' E 004°20'0 0.0
2016-Feb-08 07:33N 51°16' E 004°20'0 0.0
2016-Feb-08 06:33N 51°16' E 004°20'0 0.0
2016-Feb-08 05:34N 51°16' E 004°20'0 0.0
2016-Feb-08 04:34N 51°16' E 004°20'0 0.0
2016-Feb-08 03:34N 51°16' E 004°20'0 0.0
2016-Feb-08 02:34N 51°16' E 004°20'0 0.0
2016-Feb-08 01:34N 51°16' E 004°20'0 0.0
2016-Feb-08 00:33N 51°16' E 004°20'0 0.0
2016-Feb-07 23:33N 51°16' E 004°20'0 0.0
2016-Feb-07 22:33N 51°16' E 004°20'0 0.0
2016-Feb-07 21:33N 51°16' E 004°20'0 0.0
2016-Feb-07 20:34N 51°16' E 004°20'0 0.1
2016-Feb-07 19:34N 51°16' E 004°20'0 0.0
2016-Feb-07 18:33N 51°16' E 004°20'0 0.0
2016-Feb-07 17:33N 51°16' E 004°20'0 0.0
2016-Feb-07 16:34N 51°16' E 004°20'0 0.0
2016-Feb-07 15:33N 51°16' E 004°20'0 0.0
2016-Feb-07 14:34N 51°16' E 004°20'0 0.0
2016-Feb-07 13:33N 51°16' E 004°20'0 0.0
2016-Feb-07 12:34N 51°16' E 004°20'0 0.0
2016-Feb-07 11:33N 51°16' E 004°20'0 0.0
2016-Feb-07 10:33N 51°16' E 004°20'0 0.0
2016-Feb-07 09:33N 51°16' E 004°20'0 0.0
2016-Feb-07 08:33N 51°16' E 004°20'0 0.0
2016-Feb-07 07:33N 51°16' E 004°20'0 0.0
2016-Feb-07 06:33N 51°16' E 004°20'0 0.0
2016-Feb-07 05:33N 51°16' E 004°20'0 0.0
2016-Feb-07 04:33N 51°16' E 004°20'0 0.0
2016-Feb-07 03:33N 51°16' E 004°20'0 0.0
2016-Feb-07 02:33N 51°16' E 004°20'0 0.0
2016-Feb-07 01:33N 51°16' E 004°20'0 0.0
2016-Feb-07 00:33N 51°16' E 004°20'0 0.0
2016-Feb-06 23:33N 51°16' E 004°20'0 0.0
2016-Feb-06 22:34N 51°16' E 004°20'0 0.0
2016-Feb-06 21:34N 51°16' E 004°20'0 0.0
2016-Feb-06 20:34N 51°16' E 004°20'0 0.0
2016-Feb-06 19:34N 51°16' E 004°20'0 0.0
2016-Feb-06 18:33N 51°16' E 004°20'0 0.0
2016-Feb-06 17:34N 51°16' E 004°20'0 0.0
2016-Feb-06 16:33N 51°16' E 004°20'0 0.0
2016-Feb-06 15:33N 51°16' E 004°20'0 0.0
2016-Feb-06 14:33N 51°16' E 004°20'0 0.0
2016-Feb-06 13:33N 51°16' E 004°20'0 0.0
2016-Feb-06 12:33N 51°16' E 004°20'0 0.0
2016-Feb-06 11:34N 51°16' E 004°20'0 0.0
2016-Feb-06 10:34N 51°16' E 004°20'0 0.0
2016-Feb-06 09:33N 51°16' E 004°20'0 0.0
2016-Feb-06 08:33N 51°16' E 004°20'0 0.0
2016-Feb-06 07:34N 51°16' E 004°20'0 0.0
2016-Feb-06 06:33N 51°16' E 004°20'0 0.0
2016-Feb-06 05:34N 51°16' E 004°20'0 0.0
2016-Feb-06 04:34N 51°16' E 004°20'0 0.0
2016-Feb-06 03:33N 51°16' E 004°20'0 0.0
2016-Feb-06 02:33N 51°16' E 004°20'0 0.0
2016-Feb-06 01:34N 51°16' E 004°20'0 0.0
2016-Feb-06 00:33N 51°16' E 004°20'0 0.0
2016-Feb-05 23:33N 51°16' E 004°20'0 0.0
2016-Feb-05 22:33N 51°16' E 004°20'0 0.0
2016-Feb-05 21:33N 51°16' E 004°20'0 0.0
2016-Feb-05 20:33N 51°16' E 004°20'0 0.0
2016-Feb-05 19:33N 51°16' E 004°20'0 0.0
2016-Feb-05 18:33N 51°16' E 004°20'0 0.0
2016-Feb-05 17:33N 51°16' E 004°20'0 0.0
2016-Feb-05 16:34N 51°16' E 004°20'0 0.0
2016-Feb-05 15:33N 51°16' E 004°20'0 0.0
2016-Feb-05 14:33N 51°16' E 004°20'0 0.0
2016-Feb-05 13:33N 51°16' E 004°20'0 0.0
2016-Feb-05 12:33N 51°16' E 004°20'0 0.0
2016-Feb-05 11:34N 51°16' E 004°20'0 0.0
2016-Feb-05 10:33N 51°16' E 004°20'0 0.0
2016-Feb-05 09:33N 51°16' E 004°20'0 0.0
2016-Feb-05 08:33N 51°16' E 004°20'0 0.0
2016-Feb-05 07:33N 51°16' E 004°20'0 0.0
2016-Feb-05 06:33N 51°16' E 004°20'0 0.0
2016-Feb-05 05:33N 51°16' E 004°20'0 0.0
2016-Feb-05 04:33N 51°16' E 004°20'0 0.0
2016-Feb-05 03:33N 51°16' E 004°20'0 0.0
2016-Feb-05 02:33N 51°16' E 004°20'0 0.0
2016-Feb-05 01:33N 51°16' E 004°20'0 0.0
2016-Feb-05 00:33N 51°16' E 004°20'0 0.0
2016-Feb-04 23:33N 51°16' E 004°20'0 0.1
2016-Feb-04 22:33N 51°16' E 004°20'3 3.1
2016-Feb-04 21:33N 51°19' E 004°19'8 8.3
2016-Feb-04 20:33N 51°27' E 004°14'5 5.0
2016-Feb-04 19:31N 51°32' E 004°14'8 8.6
2016-Feb-04 18:33N 51°40' E 004°19'4 4.3
2016-Feb-04 17:32N 51°42' E 004°25'8 8.4
2016-Feb-04 16:33N 51°45' E 004°38'7 7.5
2016-Feb-04 15:33N 51°50' E 004°30'7 7.1
2016-Feb-04 14:33N 51°54' E 004°20'4 3.5
2016-Feb-04 13:33N 51°55' E 004°25'0 0.0
2016-Feb-04 12:33N 51°55' E 004°25'0 0.0
2016-Feb-04 11:33N 51°55' E 004°25'0 0.0
2016-Feb-04 10:33N 51°55' E 004°25'0 0.0
2016-Feb-04 09:33N 51°55' E 004°25'0 0.0
2016-Feb-04 08:33N 51°55' E 004°25'0 0.0
2016-Feb-04 07:33N 51°55' E 004°25'0 0.0
2016-Feb-04 06:33N 51°55' E 004°25'0 0.0
2016-Feb-04 05:33N 51°55' E 004°25'0 0.0
2016-Feb-04 04:33N 51°55' E 004°25'0 0.0
2016-Feb-04 03:33N 51°55' E 004°25'0 0.0
2016-Feb-04 02:33N 51°55' E 004°25'0 0.0
2016-Feb-04 01:33N 51°55' E 004°25'0 0.0
2016-Feb-04 00:33N 51°55' E 004°25'0 0.0
2016-Feb-03 23:33N 51°55' E 004°25'0 0.0
2016-Feb-03 22:33N 51°55' E 004°25'0 0.0
2016-Feb-03 21:33N 51°55' E 004°25'0 0.0
2016-Feb-03 20:33N 51°55' E 004°25'0 0.0
2016-Feb-03 19:33N 51°55' E 004°25'0 0.0
2016-Feb-03 18:33N 51°55' E 004°25'4 4.0
2016-Feb-03 17:33N 51°53' E 004°19'0 0.3
2016-Feb-03 16:33N 51°53' E 004°19'0 0.0
2016-Feb-03 15:33N 51°53' E 004°19'0 0.0
2016-Feb-03 14:33N 51°53' E 004°19'0 0.0
2016-Feb-03 13:33N 51°53' E 004°19'0 0.1
2016-Feb-03 12:33N 51°53' E 004°19'6 5.5
2016-Feb-03 11:33N 51°56' E 004°12'1 1.0
2016-Feb-03 10:33N 51°56' E 004°10'0 0.0
2016-Feb-03 09:33N 51°56' E 004°10'0 0.0
2016-Feb-03 08:33N 51°56' E 004°10'0 0.0
2016-Feb-03 07:33N 51°56' E 004°10'0 0.0
2016-Feb-03 06:33N 51°56' E 004°10'0 0.0
2016-Feb-03 05:33N 51°56' E 004°10'0 0.0
2016-Feb-03 04:33N 51°56' E 004°10'0 0.0
2016-Feb-03 03:33N 51°56' E 004°10'0 0.0
2016-Feb-03 02:33N 51°56' E 004°10'0 0.0
2016-Feb-03 01:33N 51°56' E 004°10'0 0.0
2016-Feb-03 00:33N 51°56' E 004°10'0 0.0
2016-Feb-02 23:33N 51°56' E 004°10'0 0.0
2016-Feb-02 22:33N 51°56' E 004°10'3 2.8
2016-Feb-02 21:33N 51°54' E 004°14'5 5.2
2016-Feb-02 20:33N 51°52' E 004°20'8 8.5
2016-Feb-02 19:33N 51°49' E 004°34'10 9.5
2016-Feb-02 18:33N 51°49' E 004°49'1110.9
2016-Feb-02 17:33N 51°49' E 005°07'10 9.9
2016-Feb-02 16:33N 51°49' E 005°23'1010.3
2016-Feb-02 15:33N 51°54' E 005°38'14 9.4
2016-Feb-02 14:05N 51°53' E 005°60'710.6
2016-Feb-02 13:24N 51°50' E 006°11'25 8.9
2016-Feb-02 10:33N 51°33' E 006°41'19 8.1
2016-Feb-02 08:14N 51°14' E 006°46'21 7.8
2016-Feb-02 05:30N 50°55' E 006°59'  

Dump ship's entire track history